Novi Ligure Glider Airport LIMR

Flugplatz Daten

Name: Novi Ligure Glider Airport

Ident: LIMR

Lat: 44,77999878

Long: 8,786390305

Platzhöhe: 607 ft

IataCode:

City: Novi Ligure

Metar

2019/04/01 18:00
CYMA 011800Z 29004KT 240V330 20SM SKC 02/M04 A3035 RMK CLIMR 2.5/-5.3/0.0 SLP308

Taf

Gewünschte Webcam nicht vorhanden? Dann fügen Sie eine hinzu. Sie wird dann so schnell wie möglich freigeschaltet
Url: Title: